createdAt,value
2022-12-19T00:01:26.765Z,46.50
2022-12-19T00:03:14.450Z,47.22
2022-12-19T00:05:01.925Z,48.22
2022-12-19T00:06:48.953Z,48.47
2022-12-19T00:08:35.998Z,53.42
2022-12-19T00:10:23.491Z,47.28
2022-12-19T00:12:14.571Z,46.13
2022-12-19T00:14:05.541Z,45.70
2022-12-19T00:15:53.143Z,44.30
2022-12-19T00:17:40.163Z,44.72
2022-12-19T00:19:27.273Z,30.47
2022-12-19T00:21:16.995Z,43.80
2022-12-19T00:23:04.021Z,47.10
2022-12-19T00:24:51.070Z,49.87
2022-12-19T00:26:39.858Z,29.42
2022-12-19T00:28:27.499Z,39.13
2022-12-19T00:32:02.247Z,39.67
2022-12-19T00:33:49.667Z,45.75
2022-12-19T00:35:36.750Z,39.63
2022-12-19T00:37:24.103Z,56.05
2022-12-19T00:39:11.756Z,45.30
2022-12-19T00:41:13.727Z,51.13
2022-12-19T00:43:01.030Z,45.40
2022-12-19T00:44:48.199Z,48.05
2022-12-19T00:46:36.308Z,43.40
2022-12-19T00:48:23.520Z,44.78
2022-12-19T00:50:10.632Z,39.47
2022-12-19T00:53:49.855Z,46.47
2022-12-19T00:55:38.846Z,44.65
2022-12-19T00:57:26.296Z,46.67
2022-12-19T01:01:14.934Z,43.58
2022-12-19T01:03:02.075Z,47.28
2022-12-19T01:04:52.338Z,47.95
2022-12-19T01:06:39.540Z,50.70
2022-12-19T01:08:26.962Z,47.33
2022-12-19T01:10:14.897Z,43.05
2022-12-19T01:12:24.709Z,46.13
2022-12-19T01:14:18.943Z,39.58
2022-12-19T01:16:11.074Z,43.30
2022-12-19T01:17:58.062Z,42.40
2022-12-19T01:19:45.114Z,44.80
2022-12-19T01:21:37.675Z,33.75
2022-12-19T01:23:25.399Z,44.63
2022-12-19T01:25:13.589Z,36.05
2022-12-19T01:27:00.820Z,44.20
2022-12-19T01:28:47.873Z,47.47
2022-12-19T01:30:35.276Z,43.03
2022-12-19T01:32:25.733Z,39.60
2022-12-19T01:34:13.684Z,40.00
2022-12-19T01:36:07.667Z,52.85
2022-12-19T01:38:03.335Z,43.38
2022-12-19T01:39:55.764Z,48.30
2022-12-19T01:41:42.900Z,45.65
2022-12-19T01:43:33.177Z,44.35
2022-12-19T01:45:33.810Z,45.30
2022-12-19T01:47:21.407Z,46.65
2022-12-19T01:51:18.478Z,38.42
2022-12-19T01:53:11.313Z,38.45
2022-12-19T01:54:58.769Z,42.15
2022-12-19T01:56:50.033Z,40.92
2022-12-19T01:58:42.027Z,38.55
2022-12-19T02:00:29.418Z,43.88
2022-12-19T02:02:28.685Z,44.42
2022-12-19T02:04:17.166Z,40.20
2022-12-19T02:06:06.458Z,44.50
2022-12-19T02:07:54.283Z,44.10
2022-12-19T02:09:42.185Z,43.08
2022-12-19T02:11:29.632Z,49.53
2022-12-19T02:13:16.969Z,45.80
2022-12-19T02:15:06.230Z,43.97
2022-12-19T02:16:58.003Z,37.88
2022-12-19T02:19:00.458Z,42.10
2022-12-19T02:21:02.806Z,41.35
2022-12-19T02:23:30.162Z,40.17
2022-12-19T02:25:38.923Z,41.22
2022-12-19T02:28:01.570Z,39.97
2022-12-19T02:30:28.052Z,35.95
2022-12-19T02:32:33.364Z,38.60
2022-12-19T02:34:34.644Z,37.78
2022-12-19T02:36:38.988Z,37.45
2022-12-19T02:38:52.506Z,34.75
2022-12-19T02:40:51.887Z,38.45
2022-12-19T02:42:46.716Z,39.50
2022-12-19T02:44:39.198Z,41.85
2022-12-19T02:46:28.435Z,39.35
2022-12-19T02:48:19.507Z,37.78
2022-12-19T02:50:08.249Z,39.45
2022-12-19T02:51:55.450Z,34.90
2022-12-19T02:53:44.021Z,37.05
2022-12-19T02:55:41.792Z,32.83
2022-12-19T02:57:36.581Z,38.88
2022-12-19T02:59:23.859Z,38.88
2022-12-19T03:01:38.322Z,39.17
2022-12-19T03:03:58.593Z,39.50
2022-12-19T03:06:20.318Z,32.72
2022-12-19T03:08:37.979Z,33.65
2022-12-19T03:10:54.037Z,37.22
2022-12-19T03:12:56.699Z,34.80
2022-12-19T03:14:46.335Z,36.72
2022-12-19T03:16:38.163Z,44.47
2022-12-19T03:18:26.583Z,35.67
2022-12-19T03:22:11.382Z,36.33
2022-12-19T03:23:59.400Z,47.35
2022-12-19T03:25:50.999Z,44.70
2022-12-19T03:27:39.617Z,41.05
2022-12-19T03:29:31.621Z,47.08
2022-12-19T03:31:22.086Z,42.17
2022-12-19T03:33:11.776Z,41.88
2022-12-19T03:35:14.037Z,44.13
2022-12-19T03:37:04.686Z,41.38
2022-12-19T03:38:53.212Z,43.38
2022-12-19T03:40:44.093Z,45.90
2022-12-19T03:42:52.496Z,44.38
2022-12-19T03:44:43.216Z,41.97
2022-12-19T03:46:30.718Z,41.58
2022-12-19T03:48:32.878Z,42.63
2022-12-19T03:50:21.126Z,41.33
2022-12-19T03:52:18.365Z,40.63
2022-12-19T03:54:27.447Z,46.08
2022-12-19T03:56:23.645Z,40.55
2022-12-19T03:58:16.909Z,40.03
2022-12-19T04:00:11.776Z,41.47
2022-12-19T04:02:04.069Z,45.78
2022-12-19T04:03:51.794Z,42.35
2022-12-19T04:05:40.474Z,52.83
2022-12-19T04:07:28.157Z,41.92
2022-12-19T04:09:22.313Z,46.90
2022-12-19T04:11:18.042Z,48.63
2022-12-19T04:13:12.660Z,49.20
2022-12-19T04:14:59.799Z,48.42
2022-12-19T04:17:14.075Z,49.28
2022-12-19T04:19:12.168Z,50.63
2022-12-19T04:21:03.828Z,50.67
2022-12-19T04:23:04.884Z,49.40
2022-12-19T04:24:54.526Z,52.33
2022-12-19T04:26:45.032Z,47.35
2022-12-19T04:28:37.907Z,49.90
2022-12-19T04:30:25.631Z,50.78
2022-12-19T04:32:14.550Z,49.53
2022-12-19T04:34:01.714Z,49.00
2022-12-19T04:35:49.207Z,49.05
2022-12-19T04:37:36.900Z,43.58
2022-12-19T04:39:24.008Z,50.70
2022-12-19T04:41:12.552Z,51.47
2022-12-19T04:43:00.126Z,53.28
2022-12-19T04:46:34.721Z,42.97
2022-12-19T04:48:21.803Z,50.45
2022-12-19T04:50:09.923Z,47.22
2022-12-19T04:51:57.393Z,47.45
2022-12-19T04:53:44.559Z,53.58
2022-12-19T04:55:31.818Z,50.38
2022-12-19T04:57:19.351Z,52.13
2022-12-19T04:59:06.523Z,52.85
2022-12-19T05:00:54.330Z,48.88
2022-12-19T05:02:42.042Z,50.53
2022-12-19T05:04:29.295Z,44.35
2022-12-19T05:06:18.561Z,43.40
2022-12-19T05:08:06.213Z,50.72
2022-12-19T05:09:53.331Z,58.78
2022-12-19T05:11:40.475Z,56.55
2022-12-19T05:13:30.374Z,50.88
2022-12-19T05:15:18.375Z,55.28
2022-12-19T05:17:08.372Z,60.25
2022-12-19T05:18:56.024Z,60.67
2022-12-19T05:20:43.189Z,53.33
2022-12-19T05:22:30.276Z,54.40
2022-12-19T05:24:17.840Z,53.28
2022-12-19T05:26:06.083Z,58.60
2022-12-19T05:27:53.193Z,55.47
2022-12-19T05:29:40.605Z,62.90
2022-12-19T05:31:27.877Z,53.47
2022-12-19T05:33:15.533Z,50.22
2022-12-19T05:35:03.182Z,58.20
2022-12-19T05:36:50.519Z,56.47
2022-12-19T05:38:38.267Z,54.63
2022-12-19T05:42:12.874Z,57.20
2022-12-19T05:43:59.926Z,52.70
2022-12-19T05:47:34.813Z,54.33
2022-12-19T05:49:21.820Z,38.38
2022-12-19T05:51:09.773Z,57.08
2022-12-19T05:52:56.930Z,56.63
2022-12-19T05:54:43.961Z,48.30
2022-12-19T05:56:31.451Z,59.08
2022-12-19T05:58:19.360Z,50.22
2022-12-19T06:00:07.204Z,51.97
2022-12-19T06:01:59.955Z,50.63
2022-12-19T06:03:48.033Z,57.47
2022-12-19T06:05:37.928Z,52.22
2022-12-19T06:07:25.508Z,56.28
2022-12-19T06:09:12.907Z,59.63
2022-12-19T06:11:01.751Z,47.55
2022-12-19T06:12:49.354Z,53.47
2022-12-19T06:14:36.674Z,50.00
2022-12-19T06:16:24.378Z,52.97
2022-12-19T06:18:11.890Z,55.33
2022-12-19T06:19:58.880Z,60.10
2022-12-19T06:21:48.507Z,56.63
2022-12-19T06:23:37.529Z,50.60
2022-12-19T06:25:24.785Z,55.75
2022-12-19T06:27:12.263Z,50.97
2022-12-19T06:30:47.358Z,59.70
2022-12-19T06:32:37.900Z,55.78
2022-12-19T06:34:55.080Z,54.88
2022-12-19T06:36:34.273Z,55.33
2022-12-19T06:38:21.300Z,55.35
2022-12-19T06:40:29.559Z,55.05
2022-12-19T06:42:25.755Z,54.58
2022-12-19T06:44:15.185Z,56.53
2022-12-19T06:46:02.736Z,49.80
2022-12-19T06:47:49.784Z,40.03
2022-12-19T06:49:36.953Z,53.97
2022-12-19T06:51:24.459Z,54.20
2022-12-19T06:53:11.558Z,61.58
2022-12-19T06:54:58.783Z,51.17
2022-12-19T06:56:46.217Z,49.80
2022-12-19T06:58:34.348Z,59.90
2022-12-19T07:00:21.939Z,52.53
2022-12-19T07:03:56.955Z,55.08
2022-12-19T07:05:44.080Z,64.63
2022-12-19T07:07:32.595Z,38.30
2022-12-19T07:09:19.682Z,56.55
2022-12-19T07:11:06.861Z,57.15
2022-12-19T07:12:54.377Z,65.18
2022-12-19T07:14:41.422Z,62.17
2022-12-19T07:16:28.728Z,54.75
2022-12-19T07:18:16.466Z,57.88
2022-12-19T07:20:04.188Z,54.55
2022-12-19T07:21:51.389Z,51.88
2022-12-19T07:23:39.743Z,54.75
2022-12-19T07:25:26.847Z,53.72
2022-12-19T07:27:14.189Z,57.55
2022-12-19T07:29:01.982Z,45.58
2022-12-19T07:30:49.123Z,50.53
2022-12-19T07:32:36.182Z,38.97
2022-12-19T07:34:23.704Z,56.20
2022-12-19T07:36:11.384Z,53.05
2022-12-19T07:38:06.205Z,61.85
2022-12-19T07:39:53.882Z,62.88
2022-12-19T07:41:41.047Z,58.63
2022-12-19T07:43:28.220Z,63.45
2022-12-19T07:45:15.671Z,63.50
2022-12-19T07:47:02.830Z,62.28
2022-12-19T07:48:50.732Z,63.05
2022-12-19T07:50:38.295Z,50.72
2022-12-19T07:52:25.742Z,62.33
2022-12-19T07:54:12.837Z,56.85
2022-12-19T07:56:00.341Z,52.10
2022-12-19T07:57:47.759Z,60.35
2022-12-19T07:59:39.008Z,56.08
2022-12-19T08:01:28.479Z,59.03
2022-12-19T08:03:16.887Z,52.75
2022-12-19T08:05:05.824Z,52.30
2022-12-19T08:06:53.278Z,57.22
2022-12-19T08:08:40.573Z,53.08
2022-12-19T08:10:27.795Z,52.15
2022-12-19T08:12:15.359Z,58.00
2022-12-19T08:14:02.504Z,53.65
2022-12-19T08:15:50.119Z,53.25
2022-12-19T08:17:38.874Z,50.50
2022-12-19T08:19:27.750Z,56.35
2022-12-19T08:21:15.008Z,54.65
2022-12-19T08:23:02.419Z,54.08
2022-12-19T08:24:49.576Z,60.75
2022-12-19T08:26:41.867Z,42.25
2022-12-19T08:28:33.580Z,50.67
2022-12-19T08:30:20.678Z,51.65
2022-12-19T08:32:07.868Z,60.63
2022-12-19T08:33:57.112Z,51.45
2022-12-19T08:35:44.199Z,58.60
2022-12-19T08:37:31.301Z,55.72
2022-12-19T08:39:18.743Z,52.15
2022-12-19T08:41:06.651Z,48.70
2022-12-19T08:42:53.867Z,49.78
2022-12-19T08:44:41.428Z,57.38
2022-12-19T08:46:28.800Z,56.20
2022-12-19T08:48:17.209Z,58.40
2022-12-19T08:50:05.435Z,56.63
2022-12-19T08:51:52.665Z,57.55
2022-12-19T08:53:41.638Z,45.92
2022-12-19T08:55:29.791Z,58.90
2022-12-19T08:57:18.208Z,54.20
2022-12-19T08:59:06.506Z,57.47
2022-12-19T09:01:04.988Z,59.80
2022-12-19T09:06:01.676Z,49.25
2022-12-19T09:06:47.744Z,51.75
2022-12-19T09:08:38.282Z,54.40
2022-12-19T09:10:25.732Z,53.33
2022-12-19T09:12:14.566Z,57.25
2022-12-19T09:14:01.880Z,59.15
2022-12-19T09:15:49.432Z,53.50
2022-12-19T09:17:36.642Z,56.22
2022-12-19T09:19:23.789Z,54.90
2022-12-19T09:21:11.377Z,49.22
2022-12-19T09:22:58.783Z,53.08
2022-12-19T09:24:45.955Z,54.38
2022-12-19T09:26:33.990Z,54.78
2022-12-19T09:28:28.687Z,55.20
2022-12-19T09:30:15.938Z,56.22
2022-12-19T09:32:03.505Z,55.22
2022-12-19T09:33:51.456Z,57.13
2022-12-19T09:37:26.744Z,47.60
2022-12-19T09:39:19.081Z,55.25
2022-12-19T09:41:44.259Z,55.92
2022-12-19T09:43:43.931Z,50.42
2022-12-19T09:45:39.057Z,54.35
2022-12-19T09:47:31.476Z,55.63
2022-12-19T09:49:25.933Z,53.80
2022-12-19T09:51:29.265Z,55.97
2022-12-19T09:53:31.749Z,58.65
2022-12-19T09:55:31.587Z,50.63
2022-12-19T09:57:25.947Z,55.63
2022-12-19T09:59:41.138Z,55.92
2022-12-19T10:01:36.233Z,52.75
2022-12-19T10:03:30.187Z,61.60
2022-12-19T10:06:15.076Z,53.85
2022-12-19T10:08:07.851Z,65.93
2022-12-19T10:11:41.731Z,59.85
2022-12-19T10:12:51.184Z,54.88
2022-12-19T10:15:07.700Z,55.42
2022-12-19T10:17:26.053Z,56.17
2022-12-19T10:19:41.244Z,57.00
2022-12-19T10:22:16.849Z,47.55
2022-12-19T10:24:28.809Z,52.70
2022-12-19T10:26:23.491Z,49.90
2022-12-19T10:28:59.140Z,52.20
2022-12-19T10:31:18.894Z,56.70
2022-12-19T10:33:28.727Z,60.42
2022-12-19T10:35:18.897Z,56.03
2022-12-19T10:37:40.901Z,55.40
2022-12-19T10:39:41.686Z,59.25
2022-12-19T10:41:32.027Z,55.83
2022-12-19T10:43:44.791Z,58.33
2022-12-19T10:45:38.161Z,58.67
2022-12-19T10:47:26.314Z,54.50
2022-12-19T10:49:17.105Z,53.90
2022-12-19T10:51:06.807Z,53.50
2022-12-19T10:53:14.062Z,53.28
2022-12-19T10:55:01.501Z,57.00
2022-12-19T10:56:49.192Z,59.88
2022-12-19T10:58:38.379Z,56.47
2022-12-19T11:00:26.004Z,56.90
2022-12-19T11:04:34.163Z,56.03
2022-12-19T11:07:08.134Z,61.80
2022-12-19T11:09:20.383Z,61.42
2022-12-19T11:12:32.543Z,59.05
2022-12-19T11:17:46.798Z,56.33
2022-12-19T11:20:46.842Z,57.13
2022-12-19T11:24:31.734Z,53.85
2022-12-19T11:29:33.478Z,55.92
2022-12-19T11:29:47.127Z,53.30
2022-12-19T11:30:41.544Z,54.88
2022-12-19T11:31:58.444Z,52.08
2022-12-19T11:33:37.708Z,48.25
2022-12-19T11:35:36.511Z,53.33
2022-12-19T11:37:39.121Z,45.42
2022-12-19T11:39:42.863Z,53.50
2022-12-19T11:41:42.740Z,52.22
2022-12-19T11:43:58.990Z,51.50
2022-12-19T11:45:55.325Z,50.88
2022-12-19T11:47:56.357Z,52.60
2022-12-19T11:49:55.600Z,49.88
2022-12-19T11:52:36.897Z,49.00
2022-12-19T11:54:37.247Z,49.22
2022-12-19T11:56:28.060Z,50.55
2022-12-19T11:58:15.672Z,47.13
2022-12-19T12:00:05.549Z,46.50
2022-12-19T12:02:42.856Z,49.80
2022-12-19T12:04:58.157Z,50.28
2022-12-19T12:06:52.310Z,50.17
2022-12-19T12:11:34.053Z,47.13
2022-12-19T12:19:16.342Z,55.72
2022-12-19T12:26:11.543Z,51.83
2022-12-19T12:26:51.548Z,51.17
2022-12-19T12:31:10.062Z,50.65
2022-12-19T12:31:40.920Z,48.70
2022-12-19T12:31:47.318Z,52.65
2022-12-19T12:32:00.978Z,54.38
2022-12-19T12:32:02.056Z,54.13
2022-12-19T12:35:31.528Z,53.00
2022-12-19T12:38:26.696Z,59.65
2022-12-19T12:42:40.450Z,52.75
2022-12-19T12:44:33.174Z,49.88
2022-12-19T12:46:27.330Z,52.47
2022-12-19T12:48:42.233Z,56.97
2022-12-19T12:50:31.101Z,59.33
2022-12-19T12:52:24.313Z,55.90
2022-12-19T12:54:14.915Z,63.40
2022-12-19T12:56:06.524Z,53.90
2022-12-19T12:57:57.334Z,49.22
2022-12-19T12:59:46.678Z,56.35
2022-12-19T13:01:37.331Z,50.60
2022-12-19T13:03:28.270Z,48.55
2022-12-19T13:05:38.167Z,52.20
2022-12-19T13:07:55.019Z,51.38
2022-12-19T13:09:43.234Z,49.15
2022-12-19T13:11:49.144Z,48.90
2022-12-19T13:13:58.125Z,54.38
2022-12-19T13:15:46.123Z,56.70
2022-12-19T13:17:33.588Z,57.63
2022-12-19T13:19:28.383Z,65.55
2022-12-19T13:21:18.368Z,61.38
2022-12-19T13:23:21.975Z,56.47
2022-12-19T13:25:41.170Z,62.92
2022-12-19T13:27:32.191Z,59.00
2022-12-19T13:29:35.142Z,56.78
2022-12-19T13:31:23.622Z,54.35
2022-12-19T13:33:11.727Z,61.30
2022-12-19T13:36:01.660Z,52.05
2022-12-19T13:39:59.749Z,53.33
2022-12-19T13:40:08.693Z,61.85
2022-12-19T13:42:31.205Z,53.40
2022-12-19T13:44:21.823Z,53.97
2022-12-19T13:46:33.224Z,56.13
2022-12-19T13:48:37.135Z,52.15
2022-12-19T13:50:32.925Z,56.65
2022-12-19T13:52:23.223Z,57.47
2022-12-19T13:54:25.643Z,55.13
2022-12-19T13:56:18.177Z,59.80
2022-12-19T13:58:06.081Z,58.80
2022-12-19T14:01:50.850Z,56.92
2022-12-19T14:03:42.271Z,54.83
2022-12-19T14:06:14.476Z,62.58
2022-12-19T14:07:41.764Z,61.47
2022-12-19T14:11:24.519Z,66.53
2022-12-19T14:13:46.831Z,65.13
2022-12-19T14:14:23.634Z,60.28
2022-12-19T14:16:16.630Z,67.93
2022-12-19T14:18:41.894Z,63.45
2022-12-19T14:22:02.162Z,64.20
2022-12-19T14:22:34.727Z,65.95
2022-12-19T14:24:25.003Z,67.05
2022-12-19T14:28:18.784Z,62.28
2022-12-19T14:28:54.579Z,63.05
2022-12-19T14:30:46.041Z,61.72
2022-12-19T14:33:46.718Z,61.92
2022-12-19T14:34:47.105Z,58.50
2022-12-19T14:36:54.212Z,62.92
2022-12-19T14:39:24.703Z,58.78
2022-12-19T14:41:09.184Z,61.40
2022-12-19T14:43:59.308Z,61.25
2022-12-19T14:52:11.614Z,61.85
2022-12-19T14:54:14.084Z,63.33
2022-12-19T14:54:18.272Z,62.88
2022-12-19T14:54:29.351Z,63.20
2022-12-19T14:56:12.965Z,58.03
2022-12-19T14:58:51.072Z,64.63
2022-12-19T14:59:50.954Z,57.10
2022-12-19T15:01:39.119Z,52.35
2022-12-19T15:03:33.307Z,63.75
2022-12-19T15:05:21.450Z,60.95
2022-12-19T15:07:15.380Z,56.20
2022-12-19T15:10:58.653Z,62.17
2022-12-19T15:13:46.716Z,54.88
2022-12-19T15:14:54.465Z,61.20
2022-12-19T15:16:36.321Z,64.18
2022-12-19T15:18:33.988Z,62.67
2022-12-19T15:20:21.805Z,63.50
2022-12-19T15:22:09.337Z,61.42
2022-12-19T15:23:59.362Z,58.85
2022-12-19T15:26:04.390Z,71.72
2022-12-19T15:27:52.216Z,68.97
2022-12-19T15:29:39.748Z,66.57
2022-12-19T15:31:39.110Z,74.22
2022-12-19T15:33:28.238Z,70.65
2022-12-19T15:35:18.227Z,62.90
2022-12-19T15:37:05.395Z,77.28
2022-12-19T15:38:52.928Z,76.63
2022-12-19T15:40:45.145Z,76.97
2022-12-19T15:42:32.541Z,74.28
2022-12-19T15:44:32.451Z,73.40
2022-12-19T15:46:19.755Z,66.95
2022-12-19T15:48:08.575Z,70.18
2022-12-19T15:49:55.935Z,67.78
2022-12-19T15:51:43.061Z,53.42
2022-12-19T15:53:40.170Z,70.67
2022-12-19T15:55:30.279Z,59.20
2022-12-19T15:57:35.231Z,65.90
2022-12-19T15:59:37.781Z,65.15
2022-12-19T16:01:26.840Z,64.35
2022-12-19T16:03:23.593Z,59.60
2022-12-19T16:05:12.318Z,65.32
2022-12-19T16:06:59.742Z,64.30
2022-12-19T16:08:46.885Z,66.22
2022-12-19T16:10:34.893Z,64.82
2022-12-19T16:12:27.530Z,67.30
2022-12-19T16:14:15.307Z,76.32
2022-12-19T16:16:10.800Z,72.13
2022-12-19T16:18:03.794Z,69.75
2022-12-19T16:19:51.736Z,69.68
2022-12-19T16:21:39.187Z,65.50
2022-12-19T16:23:26.701Z,68.72
2022-12-19T16:27:01.651Z,66.40
2022-12-19T16:28:49.043Z,68.30
2022-12-19T16:30:36.183Z,64.78
2022-12-19T16:32:26.699Z,64.07
2022-12-19T16:34:20.069Z,72.70
2022-12-19T16:36:08.826Z,74.05
2022-12-19T16:37:56.333Z,68.43
2022-12-19T16:41:31.180Z,64.03
2022-12-19T16:45:20.888Z,68.90
2022-12-19T16:47:14.171Z,67.82
2022-12-19T16:49:01.775Z,71.13
2022-12-19T16:50:50.216Z,70.63
2022-12-19T16:52:42.360Z,76.70
2022-12-19T16:54:30.039Z,80.47
2022-12-19T16:56:24.820Z,75.28
2022-12-19T16:58:20.932Z,73.20
2022-12-19T17:00:15.772Z,75.78
2022-12-19T17:02:37.742Z,82.22
2022-12-19T17:04:25.929Z,83.85
2022-12-19T17:06:16.082Z,79.70
2022-12-19T17:08:15.932Z,72.38
2022-12-19T17:10:03.938Z,88.03
2022-12-19T17:11:56.163Z,83.93
2022-12-19T17:13:45.754Z,83.55
2022-12-19T17:15:36.651Z,74.90
2022-12-19T17:17:24.078Z,72.97
2022-12-19T17:19:21.668Z,74.30
2022-12-19T17:21:15.909Z,75.30
2022-12-19T17:23:03.420Z,72.25
2022-12-19T17:26:38.099Z,75.65
2022-12-19T17:28:25.366Z,77.75
2022-12-19T17:30:13.250Z,77.75
2022-12-19T17:32:00.777Z,82.25
2022-12-19T17:33:48.048Z,81.05
2022-12-19T17:35:36.770Z,68.78
2022-12-19T17:37:24.415Z,74.70
2022-12-19T17:41:16.239Z,70.88
2022-12-19T17:43:03.475Z,73.22
2022-12-19T17:44:51.230Z,64.78
2022-12-19T17:46:38.839Z,66.68
2022-12-19T17:48:33.536Z,71.13
2022-12-19T17:50:27.460Z,67.40
2022-12-19T17:52:17.697Z,69.90
2022-12-19T17:54:12.735Z,61.60
2022-12-19T17:56:00.103Z,62.67
2022-12-19T17:59:34.802Z,63.92
2022-12-19T18:01:24.200Z,62.58
2022-12-19T18:03:22.225Z,58.45
2022-12-19T18:07:03.100Z,61.97
2022-12-19T18:08:50.938Z,65.72
2022-12-19T18:10:38.399Z,77.30
2022-12-19T18:12:26.834Z,67.93
2022-12-19T18:14:14.552Z,59.58
2022-12-19T18:16:03.416Z,68.72
2022-12-19T18:17:52.863Z,68.65
2022-12-19T18:19:40.636Z,75.70
2022-12-19T18:21:27.919Z,71.45
2022-12-19T18:23:21.737Z,70.18
2022-12-19T18:25:36.741Z,57.85
2022-12-19T18:27:24.001Z,61.38
2022-12-19T18:29:11.849Z,58.38
2022-12-19T18:31:12.776Z,62.63
2022-12-19T18:33:02.236Z,61.63
2022-12-19T18:34:50.099Z,57.60
2022-12-19T18:36:40.770Z,57.28
2022-12-19T18:38:28.691Z,58.78
2022-12-19T18:42:21.533Z,55.65
2022-12-19T18:44:08.784Z,54.00
2022-12-19T18:45:57.318Z,51.78
2022-12-19T18:47:51.702Z,52.33
2022-12-19T18:49:39.383Z,49.47
2022-12-19T18:51:29.598Z,50.10
2022-12-19T18:53:21.803Z,46.90
2022-12-19T18:55:21.412Z,50.40
2022-12-19T18:57:09.293Z,50.05
2022-12-19T18:58:56.969Z,53.88
2022-12-19T19:00:45.130Z,53.38
2022-12-19T19:02:33.146Z,50.10
2022-12-19T19:06:37.239Z,54.13
2022-12-19T19:08:29.018Z,52.30
2022-12-19T19:10:29.113Z,55.25
2022-12-19T19:12:25.933Z,58.17
2022-12-19T19:14:13.574Z,58.60
2022-12-19T19:16:05.444Z,48.40
2022-12-19T19:17:59.506Z,52.10
2022-12-19T19:19:47.679Z,50.47
2022-12-19T19:21:36.144Z,51.75
2022-12-19T19:23:33.515Z,49.53
2022-12-19T19:25:22.357Z,49.63
2022-12-19T19:27:10.032Z,50.40
2022-12-19T19:28:57.406Z,52.40
2022-12-19T19:30:45.456Z,47.15
2022-12-19T19:32:35.026Z,53.33
2022-12-19T19:34:28.196Z,47.08
2022-12-19T19:36:20.556Z,46.88
2022-12-19T19:38:09.558Z,52.58
2022-12-19T19:39:56.769Z,57.50
2022-12-19T19:41:44.552Z,50.00
2022-12-19T19:43:35.302Z,53.95
2022-12-19T19:45:23.561Z,52.30
2022-12-19T19:47:11.002Z,54.65
2022-12-19T19:48:58.677Z,64.72
2022-12-19T19:50:48.148Z,41.17
2022-12-19T19:52:38.807Z,61.00
2022-12-19T19:54:26.127Z,51.67
2022-12-19T19:56:14.368Z,62.25
2022-12-19T19:58:02.269Z,56.97
2022-12-19T19:59:50.030Z,47.63
2022-12-19T20:01:37.939Z,55.38
2022-12-19T20:03:28.186Z,57.08
2022-12-19T20:05:16.327Z,51.10
2022-12-19T20:07:04.201Z,59.85
2022-12-19T20:10:39.895Z,49.20
2022-12-19T20:12:27.888Z,56.15
2022-12-19T20:14:16.123Z,59.97
2022-12-19T20:16:22.728Z,46.72
2022-12-19T20:18:10.933Z,57.03
2022-12-19T20:19:59.805Z,58.30
2022-12-19T20:21:47.871Z,52.80
2022-12-19T20:23:36.171Z,54.30
2022-12-19T20:25:24.428Z,54.35
2022-12-19T20:29:00.525Z,56.35
2022-12-19T20:30:50.860Z,47.63
2022-12-19T20:32:38.189Z,59.63
2022-12-19T20:34:26.069Z,54.33
2022-12-19T20:36:15.205Z,54.47
2022-12-19T20:38:03.040Z,74.68
2022-12-19T20:39:50.363Z,67.47
2022-12-19T20:41:38.233Z,56.45
2022-12-19T20:43:25.541Z,57.35
2022-12-19T20:45:12.678Z,65.15
2022-12-19T20:47:00.424Z,58.00
2022-12-19T20:48:48.699Z,60.72
2022-12-19T20:50:43.155Z,72.50
2022-12-19T20:52:31.205Z,66.20
2022-12-19T20:54:18.471Z,64.22
2022-12-19T20:56:07.228Z,56.72
2022-12-19T20:57:55.408Z,65.88
2022-12-19T21:01:31.523Z,56.65
2022-12-19T21:03:28.569Z,50.17
2022-12-19T21:05:17.391Z,57.80
2022-12-19T21:07:04.569Z,63.92
2022-12-19T21:08:52.456Z,65.22
2022-12-19T21:10:39.487Z,71.72
2022-12-19T21:12:26.629Z,60.97
2022-12-19T21:14:14.122Z,57.92
2022-12-19T21:16:04.408Z,53.80
2022-12-19T21:17:51.533Z,56.72
2022-12-19T21:19:39.266Z,67.85
2022-12-19T21:21:28.085Z,55.95
2022-12-19T21:23:15.416Z,50.80
2022-12-19T21:25:03.113Z,43.97
2022-12-19T21:26:57.661Z,45.72
2022-12-19T21:28:46.021Z,47.78
2022-12-19T21:30:33.922Z,43.08
2022-12-19T21:32:21.630Z,44.15
2022-12-19T21:34:10.506Z,46.63
2022-12-19T21:36:04.721Z,49.40
2022-12-19T21:37:52.547Z,43.00
2022-12-19T21:39:39.826Z,40.63
2022-12-19T21:41:28.215Z,46.38
2022-12-19T21:43:16.346Z,107.65
2022-12-19T21:45:03.834Z,64.05
2022-12-19T21:46:51.422Z,42.40
2022-12-19T21:48:41.521Z,55.33
2022-12-19T21:50:28.902Z,44.08
2022-12-19T21:52:16.596Z,47.00
2022-12-19T21:54:05.401Z,47.28
2022-12-19T21:55:53.160Z,33.72
2022-12-19T21:57:41.977Z,37.70
2022-12-19T21:59:29.371Z,43.67
2022-12-19T22:01:17.427Z,43.97
2022-12-19T22:03:14.834Z,43.95
2022-12-19T22:06:51.343Z,46.40
2022-12-19T22:08:39.006Z,42.50
2022-12-19T22:10:26.734Z,40.70
2022-12-19T22:12:14.944Z,37.92
2022-12-19T22:14:02.777Z,34.63
2022-12-19T22:15:50.286Z,40.40
2022-12-19T22:17:37.438Z,32.80
2022-12-19T22:19:25.117Z,42.83
2022-12-19T22:21:15.398Z,35.78
2022-12-19T22:23:03.994Z,37.20
2022-12-19T22:24:53.960Z,34.97
2022-12-19T22:26:41.289Z,35.40
2022-12-19T22:28:30.907Z,36.80
2022-12-19T22:30:18.386Z,28.42
2022-12-19T22:32:05.738Z,34.65
2022-12-19T22:33:59.113Z,36.85
2022-12-19T22:35:46.665Z,33.80
2022-12-19T22:37:34.049Z,37.97
2022-12-19T22:39:22.547Z,33.35
2022-12-19T22:41:10.151Z,40.33
2022-12-19T22:42:57.231Z,37.45
2022-12-19T22:44:44.201Z,33.63
2022-12-19T22:46:37.033Z,35.00
2022-12-19T22:48:25.140Z,35.40
2022-12-19T22:50:12.397Z,36.78
2022-12-19T22:51:59.763Z,30.92
2022-12-19T22:53:47.301Z,38.38
2022-12-19T22:55:34.308Z,36.10
2022-12-19T22:57:21.728Z,31.63
2022-12-19T22:59:11.765Z,34.17
2022-12-19T23:00:58.804Z,34.83
2022-12-19T23:02:47.016Z,38.47
2022-12-19T23:04:35.996Z,31.17
2022-12-19T23:06:25.450Z,34.72
2022-12-19T23:08:13.438Z,32.25
2022-12-19T23:10:00.535Z,35.70
2022-12-19T23:11:49.352Z,37.65
2022-12-19T23:13:37.183Z,39.78
2022-12-19T23:15:24.159Z,42.53
2022-12-19T23:17:11.986Z,39.92
2022-12-19T23:18:59.488Z,34.50
2022-12-19T23:20:46.424Z,36.10
2022-12-19T23:22:33.448Z,30.87
2022-12-19T23:24:20.963Z,31.75
2022-12-19T23:26:15.617Z,40.63
2022-12-19T23:28:03.385Z,43.08
2022-12-19T23:29:50.803Z,37.88
2022-12-19T23:31:40.868Z,37.87
2022-12-19T23:33:28.010Z,36.10
2022-12-19T23:35:15.331Z,38.38
2022-12-19T23:37:11.159Z,29.75
2022-12-19T23:38:59.183Z,47.42
2022-12-19T23:40:46.546Z,31.45
2022-12-19T23:42:33.714Z,34.63
2022-12-19T23:44:20.849Z,42.57
2022-12-19T23:46:19.848Z,48.92
2022-12-19T23:48:06.981Z,32.53
2022-12-19T23:49:54.008Z,36.43
2022-12-19T23:51:41.317Z,41.33
2022-12-19T23:53:28.663Z,56.40
2022-12-19T23:55:15.816Z,48.22
2022-12-19T23:57:03.265Z,73.57
2022-12-19T23:58:50.902Z,70.75
